x

South Georgian Bay (45143) Wave Buoy

10:00pm - Wed 1st Oct 2014 All times are CDT. -5 hours from GMT.

  • Sig Wave height 0.3ft
  • Peak Period 2s
  • Wind
    9mph
  • Sea Temp 60°f
  • Air Temp 60°f
  • Sea Pressure 1018.7mb
  • South Georgian Bay
  • South Georgian Bay

More Historic Weather Station data

Upgrade to MSW Pro to gain access to the past 30 days of data for over 8000 Wavebouys and Weather Stations around the globe.

Join Pro

Comparision Forecast

View Surf forecast
   
Wed 10/01 10:00pm 0.3ft 2s 9
mph
1018.7mb 60f 60f
9:00pm 0.7ft 2s 9
mph
1018.8mb 60f 60f
8:00pm 0.7ft 2s 4 7 mph 1018.8mb 60f 60f
7:00pm 1ft 2s 7 9 mph 1018.7mb 60f 60f
6:00pm 1.3ft 2s 9 11 mph 1018.4mb 60f 59f
5:00pm 1ft 2s 13 16 mph 1018.2mb 60f 59f
4:00pm 0.7ft 3s 13
mph
1018.2mb 60f 58f
3:00pm 0.7ft 3s 9 11 mph 1018.8mb 60f 58f
2:00pm 1ft 3s 4
mph
1019.3mb 60f 57f
1:00pm 1ft 3s 4 7 mph 1019.4mb 60f 58f
12:00pm 1ft 3s 9 11 mph 1019.4mb 60f 58f
11:00am 1.3ft 3s 9 11 mph 1019.5mb 60f 57f
10:00am 1ft 3s 11
mph
1019.7mb 60f 57f
9:00am 1ft 3s 9 13 mph 1019.7mb 60f 57f
8:00am 1ft 3s 9 13 mph 1019.3mb 60f 57f
7:00am 1ft 3s 7 9 mph 1019mb 60f 58f
6:00am 1.3ft 3s 11 13 mph 1018.2mb 60f 58f
5:00am 1.3ft 3s 9 11 mph 1018.1mb 60f 58f
4:00am 1.3ft 3s 9 11 mph 1017.9mb 60f 58f
3:00am 1.6ft 4s 9
mph
1017.8mb 60f 57f
2:00am 2ft 4s 9 13 mph 1017.6mb 60f 58f
1:00am 2.5ft 4s 13 16 mph 1017.7mb 60f 58f
12:00am 2.5ft 4s 16 18 mph 1017.6mb 60f 58f
Tue 09/30 11:00pm 3ft 5s 18 20 mph 1017.3mb 60f 58f
10:00pm 3ft 4s 18 22 mph 1017mb 60f 58f
9:00pm 3.5ft 5s 18 22 mph 1016.7mb 60f 58f
8:00pm 3ft 5s 20 22 mph 1016.1mb 60f 58f
7:00pm 3ft 5s 18 22 mph 1015.9mb 60f 57f
5:00pm 3ft 5s 16 20 mph 1014.9mb 60f 59f
4:00pm 3ft 5s 16 20 mph 1014.3mb 60f 59f
3:00pm 3ft 4s 16 20 mph 1014.2mb 60f 59f
2:00pm 3ft 5s 18 20 mph 1013.7mb 60f 59f
1:00pm 3ft 5s 16 18 mph 1013.9mb 60f 58f
12:00pm 3.5ft 5s 16 18 mph 1013.9mb 60f 58f
11:00am 3.5ft 5s 16 18 mph 1013.5mb 61f 59f
9:00am 4ft 5s 20 22 mph 1012.6mb 61f 58f
8:00am 3.5ft 5s 22 25 mph 1012.4mb 61f 57f
7:00am 3.5ft 5s 22 25 mph 1012mb 61f 57f
6:00am 3ft 5s 18 22 mph 1011.6mb 61f 58f
5:00am 2.5ft 5s 18 20 mph 1011.2mb 61f 58f
4:00am 2.5ft 5s 13
mph
1011.3mb 62f 59f
3:00am 2ft 5s 11 13 mph 1011.3mb 62f 60f
2:00am 1.6ft 4s 9 11 mph 1010.9mb 62f 60f
1:00am 1.3ft 4s 11 13 mph 1011.1mb 62f 61f
12:00am 1.6ft 4s 9 11 mph 1011mb 62f 61f
Mon 09/29 11:00pm 1.3ft 4s 11 13 mph 1011.1mb 62f 61f
10:00pm 1.3ft 4s 9 13 mph 1011.7mb 62f 61f
9:00pm 0.7ft 2s 7 9 mph 1012.2mb 62f 62f
8:00pm 0.3ft 2s 7 9 mph 1012.1mb 63f 62f
7:00pm 0.3ft 2s 7
mph
1012mb 63f 62f
6:00pm 0.3ft 2s 4 7 mph 1012mb 64f 63f
5:00pm 0.3ft 2s 4 7 mph 1012.4mb 64f 63f
4:00pm 0.3ft 3s 4
mph
1012.3mb 65f 63f
3:00pm 0.3ft 2s 4
mph
1012.4mb 65f 63f
2:00pm 0.3ft 2s 4
mph
1012.8mb 64f 63f
1:00pm 0.7ft 2s 7
mph
1013.2mb 64f 63f
12:00pm 0.7ft 4s 4
mph
1014.3mb 64f 62f
11:00am 0.7ft 3s  -  2 mph 1014.9mb 64f 62f
10:00am 0.7ft 3s 2
mph
1015.2mb 62f 62f
9:00am 0.3ft 2s 4
mph
1015.7mb 62f 61f
8:00am 0.3ft 2s 4 7 mph 1015.9mb 62f 60f
7:00am 0.3ft 2s 7
mph
1016mb 62f 60f
6:00am 0.3ft 2s 4
mph
1016mb 62f 60f
5:00am 0.3ft 2s 4 7 mph 1016mb 62f 61f
4:00am 0.3ft 2s 9
mph
1016.1mb 62f 61f
3:00am 0.3ft 2s 4
mph
1016.1mb 62f 61f
2:00am 0.3ft 2s 4
mph
1016.5mb 62f 61f
1:00am 0.3ft 2s 4 7 mph 1016.6mb 62f 61f
12:00am 0.3ft 2s 7 9 mph 1016.9mb 61f 61f
Sun 09/28 11:00pm 0.3ft 2s 7
mph
1017.1mb 61f 61f
10:00pm 0.3ft 2s 4 7 mph 1017.5mb 61f 62f
9:00pm 0.3ft 2s 4
mph
1017.8mb 61f 62f
8:00pm 0.3ft 2s 7 9 mph 1017.9mb 62f 62f
7:00pm 0.3ft 2s 7
mph
1018.2mb 62f 63f
6:00pm 0.3ft 2s 4
mph
1018.1mb 62f 64f
5:00pm 0.3ft 2s 2 4 mph 1018.5mb 62f 64f
4:00pm 0.3ft 2s  -  2 mph 1018.8mb 63f 64f
3:00pm 0.3ft 2s 2 4 mph 1018.9mb 63f 63f
2:00pm 0.3ft 2s 2
mph
1019.4mb 63f 63f
1:00pm 0.3ft 2s 2 4 mph 1019.9mb 62f 63f
12:00pm 0.3ft 2s 4 7 mph 1020.8mb 62f 62f
11:00am 0.3ft 2s 4
mph
1021.3mb 61f 62f
10:00am 0.3ft 2s 9
mph
1021.9mb 61f 61f
9:00am 0.3ft 2s 7
mph
1022.1mb 61f 60f
8:00am 0.3ft 2s 7
mph
1022.2mb 61f 60f
7:00am 0.3ft 2s 4 7 mph 1022.1mb 60f 60f
6:00am 0.3ft 2s 2 4 mph 1022.1mb 60f 59f
5:00am 0.3ft 2s 2
mph
1022mb 60f 60f